createdAt,value
2019-03-21T00:01:44.754Z,102607.46
2019-03-21T00:04:15.193Z,102608.84
2019-03-21T00:06:45.078Z,102606.66
2019-03-21T00:09:17.357Z,102603.52
2019-03-21T00:12:06.947Z,102604.38
2019-03-21T00:14:43.092Z,102607.89
2019-03-21T00:17:32.820Z,102607.83
2019-03-21T00:20:02.587Z,102615.34
2019-03-21T00:22:32.483Z,102619.28
2019-03-21T00:25:02.254Z,102621.89
2019-03-21T00:27:32.035Z,102622.77
2019-03-21T00:30:01.809Z,102620.08
2019-03-21T00:32:31.649Z,102619.26
2019-03-21T00:35:01.446Z,102618.83
2019-03-21T00:37:31.187Z,102619.77
2019-03-21T00:40:01.478Z,102621.52
2019-03-21T00:42:31.261Z,102620.20
2019-03-21T00:45:01.262Z,102617.60
2019-03-21T00:47:31.019Z,102617.17
2019-03-21T00:50:00.791Z,102609.27
2019-03-21T00:52:30.585Z,102611.41
2019-03-21T00:55:00.351Z,102614.03
2019-03-21T00:57:30.143Z,102621.54
2019-03-21T00:59:59.973Z,102621.11
2019-03-21T01:02:29.735Z,102618.91
2019-03-21T01:04:59.523Z,102618.52
2019-03-21T01:07:29.266Z,102614.97
2019-03-21T01:09:59.502Z,102614.14
2019-03-21T01:12:29.261Z,102605.41
2019-03-21T01:14:59.037Z,102607.15
2019-03-21T01:17:28.817Z,102612.40
2019-03-21T01:19:58.610Z,102606.23
2019-03-21T01:22:28.401Z,102608.86
2019-03-21T01:24:58.177Z,102601.44
2019-03-21T01:27:27.972Z,102598.33
2019-03-21T01:29:57.724Z,102587.33
2019-03-21T01:32:27.540Z,102584.25
2019-03-21T01:34:57.277Z,102582.95
2019-03-21T01:37:27.047Z,102583.81
2019-03-21T01:39:56.810Z,102586.45
2019-03-21T01:42:26.602Z,102579.42
2019-03-21T01:44:56.445Z,102581.53
2019-03-21T01:47:26.229Z,102573.69
2019-03-21T01:49:55.998Z,102578.91
2019-03-21T01:52:25.752Z,102577.62
2019-03-21T01:54:55.561Z,102581.19
2019-03-21T01:57:25.295Z,102580.31
2019-03-21T01:59:55.073Z,102587.79
2019-03-21T02:02:24.856Z,102586.05
2019-03-21T02:04:54.664Z,102586.53
2019-03-21T02:07:24.428Z,102585.64
2019-03-21T02:09:54.199Z,102589.59
2019-03-21T02:12:23.964Z,102592.23
2019-03-21T02:14:53.703Z,102585.67
2019-03-21T02:17:23.498Z,102575.14
2019-03-21T02:19:53.235Z,102587.41
2019-03-21T02:22:23.043Z,102584.84
2019-03-21T02:24:52.843Z,102584.38
2019-03-21T02:27:22.678Z,102587.44
2019-03-21T02:29:52.429Z,102581.28
2019-03-21T02:32:22.216Z,102573.83
2019-03-21T02:34:51.989Z,102570.76
2019-03-21T02:37:21.733Z,102570.36
2019-03-21T02:39:59.334Z,102576.92
2019-03-21T02:42:22.980Z,102572.98
2019-03-21T02:45:07.225Z,102568.14
2019-03-21T02:47:24.238Z,102577.39
2019-03-21T02:49:54.112Z,102576.02
2019-03-21T02:52:23.873Z,102571.64
2019-03-21T02:54:53.676Z,102578.27
2019-03-21T02:57:23.417Z,102575.62
2019-03-21T02:59:53.180Z,102574.30
2019-03-21T03:02:22.964Z,102576.05
2019-03-21T03:04:52.837Z,102580.02
2019-03-21T03:07:22.621Z,102575.22
2019-03-21T03:09:52.399Z,102584.77
2019-03-21T03:12:22.164Z,102589.16
2019-03-21T03:14:51.905Z,102583.42
2019-03-21T03:17:21.725Z,102579.91
2019-03-21T03:19:51.468Z,102583.84
2019-03-21T03:22:21.278Z,102581.16
2019-03-21T03:24:51.357Z,102583.81
2019-03-21T03:27:21.149Z,102574.17
2019-03-21T03:29:50.929Z,102571.97
2019-03-21T03:32:20.808Z,102575.02
2019-03-21T03:34:50.837Z,102576.79
2019-03-21T03:37:20.568Z,102578.56
2019-03-21T03:39:50.378Z,102579.88
2019-03-21T03:42:20.155Z,102578.59
2019-03-21T03:44:49.962Z,102579.48
2019-03-21T03:47:19.728Z,102581.65
2019-03-21T03:49:49.503Z,102584.65
2019-03-21T03:52:19.283Z,102585.11
2019-03-21T03:54:49.038Z,102593.45
2019-03-21T03:57:19.486Z,102587.30
2019-03-21T03:59:49.222Z,102588.64
2019-03-21T04:02:19.018Z,102589.93
2019-03-21T04:04:48.754Z,102588.19
2019-03-21T04:07:18.561Z,102590.39
2019-03-21T04:09:48.299Z,102593.41
2019-03-21T04:12:18.082Z,102588.62
2019-03-21T04:14:47.860Z,102584.22
2019-03-21T04:17:17.597Z,102591.23
2019-03-21T04:19:47.415Z,102590.36
2019-03-21T04:22:17.333Z,102597.44
2019-03-21T04:24:47.131Z,102593.07
2019-03-21T04:27:16.925Z,102591.30
2019-03-21T04:29:46.713Z,102589.08
2019-03-21T04:32:16.498Z,102588.19
2019-03-21T04:34:46.308Z,102598.73
2019-03-21T04:37:16.087Z,102597.04
2019-03-21T04:39:45.900Z,102598.80
2019-03-21T04:42:15.663Z,102596.58
2019-03-21T04:44:45.404Z,102603.15
2019-03-21T04:47:15.208Z,102600.55
2019-03-21T04:49:45.033Z,102601.83
2019-03-21T04:52:14.855Z,102602.72
2019-03-21T04:54:44.948Z,102605.34
2019-03-21T04:57:14.761Z,102606.69
2019-03-21T04:59:44.541Z,102608.40
2019-03-21T05:02:14.337Z,102613.69
2019-03-21T05:04:44.100Z,102614.97
2019-03-21T05:07:13.901Z,102622.88
2019-03-21T05:09:44.275Z,102625.48
2019-03-21T05:12:17.064Z,102621.52
2019-03-21T05:14:46.834Z,102622.88
2019-03-21T05:17:16.653Z,102626.00
2019-03-21T05:19:46.430Z,102627.31
2019-03-21T05:22:16.203Z,102623.39
2019-03-21T05:24:45.988Z,102616.87
2019-03-21T05:27:15.725Z,102622.59
2019-03-21T05:29:48.335Z,102625.63
2019-03-21T05:32:18.096Z,102627.85
2019-03-21T05:34:47.883Z,102625.64
2019-03-21T05:37:17.661Z,102630.56
2019-03-21T05:39:47.452Z,102630.61
2019-03-21T05:42:17.321Z,102625.44
2019-03-21T05:44:47.054Z,102624.20
2019-03-21T05:47:16.851Z,102631.65
2019-03-21T05:49:46.595Z,102633.84
2019-03-21T05:52:16.377Z,102630.79
2019-03-21T05:54:46.146Z,102622.93
2019-03-21T05:57:15.954Z,102635.67
2019-03-21T05:59:45.729Z,102637.03
2019-03-21T06:02:15.508Z,102650.23
2019-03-21T06:04:45.294Z,102651.55
2019-03-21T06:07:20.950Z,102653.77
2019-03-21T06:09:50.716Z,102656.91
2019-03-21T06:12:20.501Z,102666.09
2019-03-21T06:15:01.983Z,102669.64
2019-03-21T06:17:32.075Z,102669.63
2019-03-21T06:20:35.046Z,102672.70
2019-03-21T06:23:23.085Z,102665.34
2019-03-21T06:26:13.990Z,102669.34
2019-03-21T06:28:43.788Z,102672.03
2019-03-21T06:31:13.571Z,102672.56
2019-03-21T06:33:43.341Z,102678.80
2019-03-21T06:36:13.128Z,102680.61
2019-03-21T06:38:42.866Z,102685.08
2019-03-21T06:41:12.663Z,102684.86
2019-03-21T06:43:42.401Z,102692.73
2019-03-21T06:46:12.204Z,102692.40
2019-03-21T06:48:41.948Z,102694.16
2019-03-21T06:51:11.732Z,102690.69
2019-03-21T06:53:41.512Z,102687.31
2019-03-21T06:56:11.288Z,102688.22
2019-03-21T06:58:41.068Z,102690.52
2019-03-21T07:01:10.816Z,102690.96
2019-03-21T07:03:40.792Z,102689.28
2019-03-21T07:06:10.541Z,102688.41
2019-03-21T07:08:40.330Z,102691.08
2019-03-21T07:11:10.066Z,102690.31
2019-03-21T07:13:39.855Z,102697.13
2019-03-21T07:16:09.684Z,102694.55
2019-03-21T07:18:39.488Z,102702.89
2019-03-21T07:21:09.268Z,102707.75
2019-03-21T07:23:39.075Z,102706.30
2019-03-21T07:26:08.844Z,102707.64
2019-03-21T07:28:38.798Z,102709.62
2019-03-21T07:31:11.362Z,102711.84
2019-03-21T07:33:42.391Z,102713.05
2019-03-21T07:36:12.842Z,102720.91
2019-03-21T07:38:42.922Z,102720.56
2019-03-21T07:41:13.275Z,102724.61
2019-03-21T07:43:43.506Z,102721.97
2019-03-21T07:46:14.036Z,102729.45
2019-03-21T07:48:45.894Z,102723.77
2019-03-21T07:51:16.463Z,102727.72
2019-03-21T07:53:46.449Z,102732.11
2019-03-21T07:56:16.237Z,102723.34
2019-03-21T07:58:46.075Z,102725.20
2019-03-21T08:01:19.231Z,102728.34
2019-03-21T08:03:49.895Z,102731.46
2019-03-21T08:06:20.601Z,102734.92
2019-03-21T08:08:51.511Z,102728.41
2019-03-21T08:11:21.511Z,102727.63
2019-03-21T08:13:51.329Z,102728.94
2019-03-21T08:16:21.971Z,102731.22
2019-03-21T08:18:52.837Z,102729.50
2019-03-21T08:21:23.252Z,102737.41
2019-03-21T08:23:54.006Z,102735.69
2019-03-21T08:26:24.395Z,102741.81
2019-03-21T08:28:54.201Z,102745.77
2019-03-21T08:31:23.977Z,102742.25
2019-03-21T08:33:53.785Z,102742.20
2019-03-21T08:36:23.571Z,102742.23
2019-03-21T08:38:53.377Z,102732.59
2019-03-21T08:41:23.159Z,102732.17
2019-03-21T08:43:52.934Z,102733.42
2019-03-21T08:46:22.723Z,102741.34
2019-03-21T08:48:52.482Z,102732.98
2019-03-21T08:51:22.309Z,102729.50
2019-03-21T08:53:52.093Z,102723.36
2019-03-21T08:56:21.863Z,102740.54
2019-03-21T08:58:51.752Z,102733.50
2019-03-21T09:01:21.499Z,102736.61
2019-03-21T09:03:51.303Z,102739.66
2019-03-21T09:06:21.054Z,102735.72
2019-03-21T09:08:51.162Z,102731.71
2019-03-21T09:11:20.949Z,102726.84
2019-03-21T09:13:50.855Z,102727.36
2019-03-21T09:16:20.624Z,102731.78
2019-03-21T09:18:50.598Z,102727.81
2019-03-21T09:21:20.398Z,102730.89
2019-03-21T09:23:50.235Z,102727.81
2019-03-21T09:26:20.085Z,102735.30
2019-03-21T09:28:49.989Z,102732.15
2019-03-21T09:31:19.803Z,102736.62
2019-03-21T09:33:49.584Z,102743.70
2019-03-21T09:36:19.372Z,102737.51
2019-03-21T09:38:49.151Z,102736.20
2019-03-21T09:41:18.887Z,102728.22
2019-03-21T09:43:48.704Z,102728.53
2019-03-21T09:46:18.448Z,102724.89
2019-03-21T09:48:48.275Z,102725.27
2019-03-21T09:51:18.012Z,102729.33
2019-03-21T09:53:47.797Z,102734.63
2019-03-21T09:56:17.557Z,102727.59
2019-03-21T09:58:47.335Z,102726.77
2019-03-21T10:01:17.109Z,102725.77
2019-03-21T10:03:47.618Z,102727.03
2019-03-21T10:06:17.406Z,102722.41
2019-03-21T10:08:47.221Z,102714.45
2019-03-21T10:11:16.992Z,102721.09
2019-03-21T10:13:46.766Z,102722.98
2019-03-21T10:16:16.536Z,102727.66
2019-03-21T10:18:46.270Z,102732.59
2019-03-21T10:21:16.160Z,102734.84
2019-03-21T10:23:46.005Z,102741.44
2019-03-21T10:26:15.795Z,102736.56
2019-03-21T10:28:45.586Z,102733.78
2019-03-21T10:31:15.390Z,102731.73
2019-03-21T10:33:45.182Z,102730.80
2019-03-21T10:36:16.081Z,102728.91
2019-03-21T10:38:46.220Z,102731.59
2019-03-21T10:41:16.019Z,102732.57
2019-03-21T10:43:45.887Z,102731.29
2019-03-21T10:46:15.658Z,102725.91
2019-03-21T10:48:45.441Z,102728.64
2019-03-21T10:51:15.199Z,102728.69
2019-03-21T10:53:45.020Z,102722.94
2019-03-21T10:56:14.753Z,102719.97
2019-03-21T10:58:44.544Z,102716.91
2019-03-21T11:01:14.315Z,102716.44
2019-03-21T11:03:44.069Z,102708.48
2019-03-21T11:06:13.870Z,102715.52
2019-03-21T11:08:43.618Z,102705.76
2019-03-21T11:11:13.550Z,102695.95
2019-03-21T11:13:43.361Z,102702.73
2019-03-21T11:16:13.098Z,102696.44
2019-03-21T11:18:42.897Z,102692.06
2019-03-21T11:21:12.632Z,102693.66
2019-03-21T11:23:42.414Z,102695.56
2019-03-21T11:26:12.213Z,102689.91
2019-03-21T11:28:42.006Z,102690.70
2019-03-21T11:31:11.866Z,102678.74
2019-03-21T11:33:41.666Z,102679.56
2019-03-21T11:36:11.624Z,102672.05
2019-03-21T11:38:41.404Z,102664.11
2019-03-21T11:41:11.195Z,102659.96
2019-03-21T11:43:41.043Z,102658.31
2019-03-21T11:46:10.848Z,102663.47
2019-03-21T11:48:40.619Z,102671.44
2019-03-21T11:51:10.495Z,102671.23
2019-03-21T11:53:40.355Z,102666.81
2019-03-21T11:56:12.872Z,102663.66
2019-03-21T11:58:41.732Z,102659.67
2019-03-21T12:01:11.630Z,102659.95
2019-03-21T12:03:41.399Z,102657.78
2019-03-21T12:06:11.628Z,102652.04
2019-03-21T12:08:41.403Z,102649.39
2019-03-21T12:11:11.182Z,102653.31
2019-03-21T12:13:41.170Z,102648.38
2019-03-21T12:16:10.921Z,102649.33
2019-03-21T12:18:42.151Z,102650.65
2019-03-21T12:21:12.010Z,102649.46
2019-03-21T12:23:41.800Z,102645.98
2019-03-21T12:26:11.599Z,102654.22
2019-03-21T12:28:41.402Z,102646.47
2019-03-21T12:31:11.126Z,102646.87
2019-03-21T12:33:40.898Z,102650.09
2019-03-21T12:36:10.745Z,102650.64
2019-03-21T12:38:40.647Z,102645.94
2019-03-21T12:41:10.427Z,102645.55
2019-03-21T12:43:40.331Z,102651.24
2019-03-21T12:46:10.100Z,102641.58
2019-03-21T12:48:39.858Z,102643.43
2019-03-21T12:51:09.884Z,102645.11
2019-03-21T12:53:39.702Z,102634.13
2019-03-21T12:56:09.572Z,102643.49
2019-03-21T12:58:39.322Z,102631.26
2019-03-21T13:01:09.111Z,102636.64
2019-03-21T13:03:38.892Z,102634.95
2019-03-21T13:06:08.749Z,102628.70
2019-03-21T13:08:38.729Z,102626.00
2019-03-21T13:11:08.514Z,102627.77
2019-03-21T13:13:38.331Z,102625.48
2019-03-21T13:16:08.122Z,102628.93
2019-03-21T13:18:37.920Z,102623.63
2019-03-21T13:21:07.707Z,102613.08
2019-03-21T13:23:37.490Z,102612.20
2019-03-21T13:26:07.258Z,102617.34
2019-03-21T13:28:37.007Z,102616.03
2019-03-21T13:31:06.820Z,102612.48
2019-03-21T13:33:36.580Z,102609.40
2019-03-21T13:36:06.351Z,102605.47
2019-03-21T13:38:36.127Z,102608.66
2019-03-21T13:41:05.908Z,102607.81
2019-03-21T13:43:35.713Z,102604.02
2019-03-21T13:46:05.469Z,102596.92
2019-03-21T13:48:35.281Z,102594.71
2019-03-21T13:51:05.012Z,102588.00
2019-03-21T13:53:34.830Z,102586.68
2019-03-21T13:56:04.587Z,102582.20
2019-03-21T13:58:34.364Z,102581.73
2019-03-21T14:01:04.157Z,102583.09
2019-03-21T14:03:33.972Z,102586.28
2019-03-21T14:06:04.864Z,102578.95
2019-03-21T14:08:34.692Z,102577.62
2019-03-21T14:11:04.510Z,102578.91
2019-03-21T14:13:34.322Z,102573.09
2019-03-21T14:16:04.110Z,102566.02
2019-03-21T14:18:33.877Z,102565.58
2019-03-21T14:21:03.671Z,102562.53
2019-03-21T14:23:42.672Z,102568.77
2019-03-21T14:26:04.926Z,102564.34
2019-03-21T14:28:34.713Z,102570.88
2019-03-21T14:31:04.529Z,102574.94
2019-03-21T14:33:34.420Z,102573.13
2019-03-21T14:36:04.220Z,102574.94
2019-03-21T14:38:34.005Z,102571.00
2019-03-21T14:41:03.767Z,102573.33
2019-03-21T14:43:33.557Z,102573.77
2019-03-21T14:46:03.295Z,102575.97
2019-03-21T14:48:33.113Z,102579.13
2019-03-21T14:51:02.862Z,102574.27
2019-03-21T14:53:32.662Z,102576.92
2019-03-21T14:56:02.517Z,102578.68
2019-03-21T14:58:32.340Z,102580.01
2019-03-21T15:01:02.115Z,102574.68
2019-03-21T15:03:32.014Z,102580.41
2019-03-21T15:06:01.898Z,102585.33
2019-03-21T15:08:31.658Z,102588.35
2019-03-21T15:11:01.460Z,102583.06
2019-03-21T15:13:31.259Z,102580.98
2019-03-21T15:16:01.224Z,102585.00
2019-03-21T15:18:31.019Z,102586.32
2019-03-21T15:21:01.127Z,102585.44
2019-03-21T15:23:40.101Z,102586.29
2019-03-21T15:26:02.407Z,102583.23
2019-03-21T15:28:32.182Z,102584.12
2019-03-21T15:31:01.958Z,102585.43
2019-03-21T15:33:31.750Z,102587.23
2019-03-21T15:36:01.507Z,102580.16
2019-03-21T15:38:31.302Z,102580.14
2019-03-21T15:41:01.043Z,102585.89
2019-03-21T15:43:30.824Z,102575.31
2019-03-21T15:46:00.592Z,102573.11
2019-03-21T15:48:30.417Z,102569.56
2019-03-21T15:51:04.690Z,102572.69
2019-03-21T15:53:31.681Z,102569.56
2019-03-21T15:56:01.458Z,102570.44
2019-03-21T15:58:31.268Z,102565.64
2019-03-21T16:01:01.047Z,102570.10
2019-03-21T16:03:30.838Z,102567.44
2019-03-21T16:06:00.628Z,102567.88
2019-03-21T16:08:30.404Z,102565.66
2019-03-21T16:11:00.378Z,102572.75
2019-03-21T16:13:30.132Z,102565.67
2019-03-21T16:15:59.947Z,102563.49
2019-03-21T16:18:29.700Z,102566.16
2019-03-21T16:20:59.475Z,102559.11
2019-03-21T16:23:29.260Z,102561.77
2019-03-21T16:25:59.175Z,102559.54
2019-03-21T16:28:28.975Z,102558.69
2019-03-21T16:30:58.747Z,102555.59
2019-03-21T16:33:28.539Z,102563.09
2019-03-21T16:35:58.285Z,102564.86
2019-03-21T16:38:28.098Z,102561.80
2019-03-21T16:40:57.861Z,102559.58
2019-03-21T16:43:27.648Z,102566.17
2019-03-21T16:45:57.435Z,102563.13
2019-03-21T16:48:27.248Z,102560.45
2019-03-21T16:50:57.051Z,102562.68
2019-03-21T16:53:26.866Z,102568.81
2019-03-21T16:55:56.650Z,102564.42
2019-03-21T16:58:26.451Z,102560.05
2019-03-21T17:00:56.235Z,102556.52
2019-03-21T17:03:25.981Z,102569.28
2019-03-21T17:05:55.829Z,102563.56
2019-03-21T17:08:25.630Z,102567.10
2019-03-21T17:10:55.652Z,102573.27
2019-03-21T17:13:25.404Z,102586.91
2019-03-21T17:15:56.798Z,102581.20
2019-03-21T17:18:26.539Z,102577.24
2019-03-21T17:20:56.378Z,102581.20
2019-03-21T17:23:26.103Z,102582.09
2019-03-21T17:25:55.897Z,102580.30
2019-03-21T17:28:25.682Z,102585.59
2019-03-21T17:30:57.041Z,102580.76
2019-03-21T17:33:28.390Z,102581.66
2019-03-21T17:35:58.208Z,102581.65
2019-03-21T17:38:28.083Z,102579.01
2019-03-21T17:40:57.871Z,102581.66
2019-03-21T17:43:27.757Z,102583.83
2019-03-21T17:45:58.284Z,102583.41
2019-03-21T17:48:28.607Z,102582.51
2019-03-21T17:50:58.353Z,102593.08
2019-03-21T17:53:28.164Z,102601.91
2019-03-21T17:55:58.202Z,102598.36
2019-03-21T17:58:28.802Z,102600.56
2019-03-21T18:00:58.805Z,102599.67
2019-03-21T18:03:28.615Z,102604.98
2019-03-21T18:05:58.373Z,102605.42
2019-03-21T18:08:28.179Z,102610.23
2019-03-21T18:10:57.947Z,102609.36
2019-03-21T18:13:27.788Z,102609.81
2019-03-21T18:15:59.218Z,102608.06
2019-03-21T18:18:30.597Z,102609.81
2019-03-21T18:21:01.839Z,102606.30
2019-03-21T18:23:40.095Z,102607.17
2019-03-21T18:26:07.880Z,102610.69
2019-03-21T18:50:58.009Z,102607.14
2019-03-21T18:56:55.623Z,102618.59
2019-03-21T18:59:27.395Z,102608.03
2019-03-21T19:02:00.145Z,102604.51
2019-03-21T19:04:32.752Z,102611.98
2019-03-21T19:11:05.495Z,102609.80
2019-03-21T19:13:59.468Z,102629.15
2019-03-21T19:16:34.552Z,102615.91
2019-03-21T19:19:06.259Z,102614.59
2019-03-21T19:21:43.045Z,102619.42
2019-03-21T19:24:20.317Z,102615.47
2019-03-21T19:26:51.160Z,102612.37
2019-03-21T19:29:21.530Z,102615.91
2019-03-21T19:31:57.855Z,102618.08
2019-03-21T19:34:36.971Z,102613.69
2019-03-21T19:37:15.103Z,102614.13
2019-03-21T19:39:49.764Z,102609.30
2019-03-21T19:42:28.537Z,102605.80
2019-03-21T19:45:02.348Z,102602.27
2019-03-21T19:47:35.256Z,102596.13
2019-03-21T19:50:10.816Z,102593.50
2019-03-21T19:52:42.378Z,102590.81
2019-03-21T19:55:30.180Z,102595.63
2019-03-21T19:57:59.587Z,102598.28
2019-03-21T20:00:46.270Z,102597.39
2019-03-21T20:03:21.386Z,102597.83
2019-03-21T20:06:00.543Z,102590.80
2019-03-21T20:08:49.173Z,102586.81
2019-03-21T20:11:35.028Z,102581.53
2019-03-21T20:14:24.524Z,102586.81
2019-03-21T20:17:01.768Z,102593.41
2019-03-21T20:19:36.268Z,102598.67
2019-03-21T20:22:13.633Z,102592.50
2019-03-21T20:24:44.396Z,102590.31
2019-03-21T20:27:15.107Z,102593.38
2019-03-21T20:29:45.973Z,102598.22
2019-03-21T20:32:20.693Z,102590.72
2019-03-21T20:34:49.417Z,102596.87
2019-03-21T20:37:20.055Z,102596.89
2019-03-21T20:39:51.505Z,102606.11
2019-03-21T20:42:21.826Z,102597.74
2019-03-21T20:44:53.844Z,102598.62
2019-03-21T20:47:24.759Z,102603.88
2019-03-21T20:50:14.223Z,102603.01
2019-03-21T20:55:56.251Z,102599.50
2019-03-21T20:58:40.804Z,102601.27
2019-03-21T21:01:14.501Z,102595.98
2019-03-21T21:04:09.331Z,102588.97
2019-03-21T21:06:51.537Z,102593.38
2019-03-21T21:28:01.518Z,102601.70
2019-03-21T21:30:34.110Z,102603.89
2019-03-21T21:33:06.248Z,102602.16
2019-03-21T21:35:38.910Z,102592.89
2019-03-21T21:38:10.126Z,102598.19
2019-03-21T21:40:40.679Z,102592.48
2019-03-21T21:43:10.489Z,102599.53
2019-03-21T21:45:40.959Z,102607.44
2019-03-21T21:48:12.068Z,102607.44
2019-03-21T21:50:41.843Z,102604.34
2019-03-21T21:53:11.653Z,102607.45
2019-03-21T21:55:43.047Z,102600.41
2019-03-21T21:58:12.860Z,102612.27
2019-03-21T22:00:42.640Z,102599.52
2019-03-21T22:03:12.411Z,102599.53
2019-03-21T22:05:42.200Z,102596.88
2019-03-21T22:08:11.942Z,102590.27
2019-03-21T22:10:41.742Z,102598.63
2019-03-21T22:13:11.514Z,102600.38
2019-03-21T22:15:41.478Z,102601.24
2019-03-21T22:18:11.268Z,102601.69
2019-03-21T22:20:41.073Z,102593.32
2019-03-21T22:23:10.864Z,102592.45
2019-03-21T22:25:40.659Z,102597.71
2019-03-21T22:28:10.437Z,102599.48
2019-03-21T22:30:40.247Z,102591.56
2019-03-21T22:33:10.018Z,102591.58
2019-03-21T22:35:39.793Z,102586.26
2019-03-21T22:38:09.563Z,102593.28
2019-03-21T22:40:39.310Z,102589.34
2019-03-21T22:43:09.111Z,102589.73
2019-03-21T22:45:38.888Z,102588.42
2019-03-21T22:48:08.675Z,102588.38
2019-03-21T22:50:38.447Z,102592.81
2019-03-21T22:53:08.191Z,102594.53
2019-03-21T22:55:37.994Z,102591.47
2019-03-21T22:58:07.734Z,102593.66
2019-03-21T23:00:42.111Z,102594.52
2019-03-21T23:03:11.950Z,102589.27
2019-03-21T23:05:41.930Z,102595.39
2019-03-21T23:08:11.658Z,102594.52
2019-03-21T23:10:41.533Z,102591.00
2019-03-21T23:13:11.282Z,102591.85
2019-03-21T23:15:41.061Z,102589.67
2019-03-21T23:18:10.846Z,102581.76
2019-03-21T23:20:40.645Z,102588.31
2019-03-21T23:23:10.438Z,102585.68
2019-03-21T23:25:40.222Z,102576.91
2019-03-21T23:28:10.007Z,102574.72
2019-03-21T23:30:39.744Z,102575.14
2019-03-21T23:33:09.561Z,102575.58
2019-03-21T23:35:39.331Z,102575.14
2019-03-21T23:38:09.104Z,102576.44
2019-03-21T23:40:38.874Z,102583.89
2019-03-21T23:43:08.627Z,102584.34
2019-03-21T23:45:38.429Z,102585.66
2019-03-21T23:48:08.187Z,102587.38
2019-03-21T23:50:38.022Z,102575.92
2019-03-21T23:53:07.798Z,102576.34
2019-03-21T23:55:37.602Z,102572.34
2019-03-21T23:58:07.422Z,102574.03
